Map

Track Data

SID SEASON NUMBER BASIN SUBBASIN NAME ISO_TIME NATURE LAT LON WMO_WIND WMO_PRES WMO_AGENCY TRACK_TYPE DIST2LAND LANDFALL IFLAG USA_AGENCY USA_ATCF_ID USA_LAT USA_LON USA_RECORD USA_STATUS USA_WIND USA_PRES USA_SSHS USA_R34_NE USA_R34_SE USA_R34_SW USA_R34_NW USA_R50_NE USA_R50_SE USA_R50_SW USA_R50_NW USA_R64_NE USA_R64_SE USA_R64_SW USA_R64_NW USA_POCI USA_ROCI USA_RMW USA_EYE TOKYO_LAT TOKYO_LON TOKYO_GRADE TOKYO_WIND TOKYO_PRES TOKYO_R50_DIR TOKYO_R50_LONG TOKYO_R50_SHORT TOKYO_R30_DIR TOKYO_R30_LONG TOKYO_R30_SHORT TOKYO_LAND CMA_LAT CMA_LON CMA_CAT CMA_WIND CMA_PRES HKO_LAT HKO_LON HKO_CAT HKO_WIND HKO_PRES NEWDELHI_LAT NEWDELHI_LON NEWDELHI_GRADE NEWDELHI_WIND NEWDELHI_PRES NEWDELHI_CI NEWDELHI_DP NEWDELHI_POCI REUNION_LAT REUNION_LON REUNION_TYPE REUNION_WIND REUNION_PRES REUNION_TNUM REUNION_CI REUNION_RMW REUNION_R34_NE REUNION_R34_SE REUNION_R34_SW REUNION_R34_NW REUNION_R50_NE REUNION_R50_SE REUNION_R50_SW REUNION_R50_NW REUNION_R64_NE REUNION_R64_SE REUNION_R64_SW REUNION_R64_NW BOM_LAT BOM_LON BOM_TYPE BOM_WIND BOM_PRES BOM_TNUM BOM_CI BOM_RMW BOM_R34_NE BOM_R34_SE BOM_R34_SW BOM_R34_NW BOM_R50_NE BOM_R50_SE BOM_R50_SW BOM_R50_NW BOM_R64_NE BOM_R64_SE BOM_R64_SW BOM_R64_NW BOM_ROCI BOM_POCI BOM_EYE BOM_POS_METHOD BOM_PRES_METHOD NADI_LAT NADI_LON NADI_CAT NADI_WIND NADI_PRES WELLINGTON_LAT WELLINGTON_LON WELLINGTON_WIND WELLINGTON_PRES DS824_LAT DS824_LON DS824_STAGE DS824_WIND DS824_PRES TD9636_LAT TD9636_LON TD9636_STAGE TD9636_WIND TD9636_PRES TD9635_LAT TD9635_LON TD9635_WIND TD9635_PRES TD9635_ROCI NEUMANN_LAT NEUMANN_LON NEUMANN_CLASS NEUMANN_WIND NEUMANN_PRES MLC_LAT MLC_LON MLC_CLASS MLC_WIND MLC_PRES USA_GUST BOM_GUST BOM_GUST_PER REUNION_GUST REUNION_GUST_PER USA_SEAHGT USA_SEARAD_NE USA_SEARAD_SE USA_SEARAD_SW USA_SEARAD_NW STORM_SPEED STORM_DIR
1921202S16158 1922 31 SP EA NOT_NAMED 1921-07-20 12:00:00 NR -16.4000 158.000 main 749 740 __________O___ -1 -16.4000 158.000 7 2 352
1921202S16158 1922 31 SP EA NOT_NAMED 1921-07-20 15:00:00 NR -16.2892 157.998 main 740 740 __________P___ -1 -16.2892 157.998 7 1 0
1921202S16158 1922 31 SP EA NOT_NAMED 1921-07-20 18:00:00 NR -16.2728 157.996 main 740 740 __________P___ -1 -16.2728 157.996 7 2 0
1921202S16158 1922 31 SP EA NOT_NAMED 1921-07-20 21:00:00 NR -16.4449 157.997 main 749 737 __________P___ -1 -16.4449 157.997 7 6 0
1921202S16158 1922 31 SP EA NOT_NAMED 1921-07-21 00:00:00 NR -16.9000 158.000 main 737 699 __________O___ -1 -16.9000 158.000 7 13 179
1921202S16158 1922 31 SP EA NOT_NAMED 1921-07-21 03:00:00 NR -17.6946 158.001 main 694 653 __________P___ -1 -17.6946 158.001 7 18 180
1921202S16158 1922 31 SP EA NOT_NAMED 1921-07-21 06:00:00 NR -18.7324 157.974 main 653 639 __________P___ -1 -18.7324 157.974 7 22 183
1921202S16158 1922 31 SP EA NOT_NAMED 1921-07-21 09:00:00 NR -19.8790 157.885 main 638 626 __________P___ -1 -19.8790 157.885 7 23 186
1921202S16158 1922 31 SP EA NOT_NAMED 1921-07-21 12:00:00 NR -21.0000 157.700 main 619 529 __________O___ -1 -21.0000 157.700 7 21 194
1921202S16158 1922 31 SP EA NOT_NAMED 1921-07-21 15:00:00 NR -21.9499 157.327 main 521 428 __________P___ -1 -21.9499 157.327 7 20 203
1921202S16158 1922 31 SP EA NOT_NAMED 1921-07-21 18:00:00 NR -22.8439 156.864 main 428 341 __________P___ -1 -22.8439 156.864 7 19 207
1921202S16158 1922 31 SP EA NOT_NAMED 1921-07-21 21:00:00 NR -23.6657 156.393 main 336 270 __________P___ -1 -23.6657 156.393 7 18 207
1921202S16158 1922 31 SP EA NOT_NAMED 1921-07-22 00:00:00 NR -24.4000 156.000 main 270 251 __________O___ -1 -24.4000 156.000 7 15 199
1921202S16158 1922 31 SP EA NOT_NAMED 1921-07-22 03:00:00 NR -25.0429 155.858 main 251 241 __________P___ -1 -25.0429 155.858 7 12 188
1921202S16158 1922 31 SP EA NOT_NAMED 1921-07-22 06:00:00 NR -25.6029 155.801 main 250 250 __________P___ -1 -25.6029 155.801 7 11 186
1921202S16158 1922 31 SP EA NOT_NAMED 1921-07-22 09:00:00 NR -26.1116 155.743 main 258 244 __________P___ -1 -26.1116 155.743 7 10 190
1921202S16158 1922 31 SP EA NOT_NAMED 1921-07-22 12:00:00 NR -26.6000 155.600 main 244 192 __________O___ -1 -26.6000 155.600 7 12 207
1921202S16158 1922 31 SP EA NOT_NAMED 1921-07-22 15:00:00 NR -27.1692 155.138 main 180 112 __________P___ -1 -27.1692 155.138 7 14 219
1921202S16158 1922 31 SP EA NOT_NAMED 1921-07-22 18:00:00 NR -27.7152 154.594 main 112 48 __________P___ -1 -27.7152 154.594 7 14 222
1921202S16158 1922 31 SP EA NOT_NAMED 1921-07-22 21:00:00 NR -28.2032 154.103 main 48 19 __________P___ -1 -28.2032 154.103 7 11 218
1921202S16158 1922 31 SP EA NOT_NAMED 1921-07-23 00:00:00 NR -28.6000 153.800 main 19 19 __________O___ -1 -28.6000 153.800 7 7 197
1921202S16158 1922 31 SP EA NOT_NAMED 1921-07-23 03:00:00 NR -28.8356 153.876 main 29 29 __________P___ -1 -28.8356 153.876 7 5 141
1921202S16158 1922 31 SP EA NOT_NAMED 1921-07-23 06:00:00 NR -28.9876 154.153 main 59 59 __________P___ -1 -28.9876 154.153 7 6 117
1921202S16158 1922 31 SP EA NOT_NAMED 1921-07-23 09:00:00 NR -29.1207 154.528 main 90 90 __________P___ -1 -29.1207 154.528 7 7 116
1921202S16158 1922 31 SP EA NOT_NAMED 1921-07-23 12:00:00 NR -29.3000 154.900 main 133 133 __________O___ -1 -29.3000 154.900 7 7 135
1921202S16158 1922 31 SP EA NOT_NAMED 1921-07-23 15:00:00 NR -29.6417 155.129 main 165 165 __________P___ -1 -29.6417 155.129 7 8 153
1921202S16158 1922 31 SP EA NOT_NAMED 1921-07-23 18:00:00 NR -30.0348 155.337 main 192 192 __________P___ -1 -30.0348 155.337 7 9 157
1921202S16158 1922 31 SP EA NOT_NAMED 1921-07-23 21:00:00 NR -30.4355 155.526 main 218 218 __________P___ -1 -30.4355 155.526 7 8 158
1921202S16158 1922 31 SP EA NOT_NAMED 1921-07-24 00:00:00 NR -30.8000 155.700 main 249 248 __________O___ -1 -30.8000 155.700 7 6 158
1921202S16158 1922 31 SP EA NOT_NAMED 1921-07-24 03:00:00 NR -30.9689 155.773 main 257 256 __________P___ -1 -30.9689 155.773 7 3 158
1921202S16158 1922 31 SP EA NOT_NAMED 1921-07-24 06:00:00 NR -31.1121 155.846 main 256 256 __________P___ -1 -31.1121 155.846 7 4 152
1921202S16158 1922 31 SP EA NOT_NAMED 1921-07-24 09:00:00 NR -31.3243 155.995 main 276 276 __________P___ -1 -31.3243 155.995 7 7 147
1921202S16158 1922 31 SP EA NOT_NAMED 1921-07-24 12:00:00 NR -31.7000 156.300 main 310 310 __________O___ -1 -31.7000 156.300 7 13 149
1921202S16158 1922 31 SP EA NOT_NAMED 1921-07-24 15:00:00 NR -32.4736 156.809 main 382 382 __________P___ -1 -32.4736 156.809 7 20 149
1921202S16158 1922 31 SP EA NOT_NAMED 1921-07-24 18:00:00 NR -33.3935 157.498 main 474 474 __________P___ -1 -33.3935 157.498 7 22 145
1921202S16158 1922 31 SP EA NOT_NAMED 1921-07-24 21:00:00 NR -34.2915 158.339 main 577 577 __________P___ -1 -34.2915 158.339 7 22 137
1921202S16158 1922 31 SP EA NOT_NAMED 1921-07-25 00:00:00 NR -35.0000 159.300 main 691 691 __________O___ -1 -35.0000 159.300 7 19 123
1921202S16158 1922 31 SP MM NOT_NAMED 1921-07-25 03:00:00 NR -35.3142 160.287 main 787 787 __________P___ -1 -35.3142 160.287 7 17 104
1921202S16158 1922 31 SP MM NOT_NAMED 1921-07-25 06:00:00 NR -35.4183 161.368 main 884 884 __________P___ -1 -35.4183 161.368 7 18 92
1921202S16158 1922 31 SP MM NOT_NAMED 1921-07-25 09:00:00 NR -35.3882 162.514 main 923 823 __________P___ -1 -35.3882 162.514 7 19 86
1921202S16158 1922 31 SP MM NOT_NAMED 1921-07-25 12:00:00 NR -35.3000 163.700 main 814 706 __________O___ -1 -35.3000 163.700 7 20 86
1921202S16158 1922 31 SP MM NOT_NAMED 1921-07-25 15:00:00 NR -35.2605 165.002 main 697 587 __________P___ -1 -35.2605 165.002 7 21 87
1921202S16158 1922 31 SP MM NOT_NAMED 1921-07-25 18:00:00 NR -35.1796 166.320 main 578 469 __________P___ -1 -35.1796 166.320 7 21 85
1921202S16158 1922 31 SP MM NOT_NAMED 1921-07-25 21:00:00 NR -35.0829 167.552 main 460 377 __________P___ -1 -35.0829 167.552 7 19 85
1921202S16158 1922 31 SP MM NOT_NAMED 1921-07-26 00:00:00 NR -35.0000 168.600 main 368 305 __________O___ -1 -35.0000 168.600 7 15 86
1921202S16158 1922 31 SP MM NOT_NAMED 1921-07-26 03:00:00 NR -34.9719 169.374 main 296 252 __________P___ -1 -34.9719 169.374 7 11 88
1921202S16158 1922 31 SP MM NOT_NAMED 1921-07-26 06:00:00 NR -34.9700 169.960 main 243 208 __________P___ -1 -34.9700 169.960 7 9 91
1921202S16158 1922 31 SP MM NOT_NAMED 1921-07-26 09:00:00 NR -34.9834 170.416 main 208 173 __________P___ -1 -34.9834 170.416 7 7 92
1921202S16158 1922 31 SP MM NOT_NAMED 1921-07-26 12:00:00 NR -35.0000 170.800 main 173 147 __________O___ -1 -35.0000 170.800 7 6 91
1921202S16158 1922 31 SP MM NOT_NAMED 1921-07-26 15:00:00 NR -34.9973 171.155 main 139 122 __________P___ -1 -34.9973 171.155 7 5 90
1921202S16158 1922 31 SP MM NOT_NAMED 1921-07-26 18:00:00 NR -34.9962 171.463 main 114 91 __________P___ -1 -34.9962 171.463 7 5 90
1921202S16158 1922 31 SP MM NOT_NAMED 1921-07-26 21:00:00 NR -34.9971 171.789 main 91 66 __________P___ -1 -34.9971 171.789 7 6 90
1921202S16158 1922 31 SP MM NOT_NAMED 1921-07-27 00:00:00 NR -35.0000 172.200 main 66 28 __________O___ -1 -35.0000 172.200 7 8 91
1921202S16158 1922 31 SP MM NOT_NAMED 1921-07-27 03:00:00 NR -35.0139 172.801 main 28 0 __________P___ -1 -35.0139 172.801 7 11 91
1921202S16158 1922 31 SP MM NOT_NAMED 1921-07-27 06:00:00 NR -35.0249 173.489 main 0 0 __________P___ -1 -35.0249 173.489 7 11 90
1921202S16158 1922 31 SP MM NOT_NAMED 1921-07-27 09:00:00 NR -35.0231 174.207 main 21 21 __________P___ -1 -35.0231 174.207 7 12 89
1921202S16158 1922 31 SP MM NOT_NAMED 1921-07-27 12:00:00 NR -35.0000 174.900 main 63 63 __________O___ -1 -35.0000 174.900 7 11 86
1921202S16158 1922 31 SP MM NOT_NAMED 1921-07-27 15:00:00 NR -34.9505 175.523 main 109 109 __________P___ -1 -34.9505 175.523 7 10 83
1921202S16158 1922 31 SP MM NOT_NAMED 1921-07-27 18:00:00 NR -34.8795 176.084 main 163 163 __________P___ -1 -34.8795 176.084 7 9 80
1921202S16158 1922 31 SP MM NOT_NAMED 1921-07-27 21:00:00 NR -34.7938 176.603 main 210 210 __________P___ -1 -34.7938 176.603 7 9 78
1921202S16158 1922 31 SP MM NOT_NAMED 1921-07-28 00:00:00 NR -34.7000 177.100 main 256 __________O___ -1 -34.7000 177.100 7 8 77

Digital Typhoon Data and Search

About IBTrACS Database

This database is a web-friendly format of International Best Track Archive for Climate Stewardship (IBTrACS), a global best track data archive curated by NOAA dating back to 1842.

Updated: 2021-10-21